createdAt,value
2018-05-16T00:01:48.218Z,16.20
2018-05-16T00:03:52.117Z,16.30
2018-05-16T00:05:56.772Z,16.20
2018-05-16T00:08:01.954Z,16.10
2018-05-16T00:10:06.060Z,16.10
2018-05-16T00:12:11.208Z,15.90
2018-05-16T00:14:15.165Z,15.70
2018-05-16T00:16:18.985Z,15.60
2018-05-16T00:18:24.197Z,15.60
2018-05-16T00:20:28.069Z,15.70
2018-05-16T00:22:31.926Z,15.70
2018-05-16T00:24:38.162Z,15.80
2018-05-16T00:26:42.337Z,15.90
2018-05-16T00:28:47.394Z,15.80
2018-05-16T00:30:52.335Z,15.80
2018-05-16T00:32:57.061Z,15.90
2018-05-16T00:35:01.102Z,16.00
2018-05-16T00:37:06.489Z,16.00
2018-05-16T00:39:10.426Z,16.00
2018-05-16T00:41:15.082Z,16.20
2018-05-16T00:43:20.220Z,16.30
2018-05-16T00:45:24.973Z,16.20
2018-05-16T00:47:32.325Z,16.10
2018-05-16T00:49:38.265Z,15.70
2018-05-16T00:51:43.890Z,15.70
2018-05-16T00:53:52.047Z,15.60
2018-05-16T00:55:57.207Z,15.60
2018-05-16T00:58:16.730Z,15.50
2018-05-16T01:00:24.440Z,15.50
2018-05-16T01:02:32.673Z,15.80
2018-05-16T01:04:36.570Z,15.90
2018-05-16T01:06:40.424Z,15.80
2018-05-16T01:08:44.643Z,15.80
2018-05-16T01:10:53.381Z,16.00
2018-05-16T01:13:06.752Z,15.90
2018-05-16T01:15:19.362Z,16.00
2018-05-16T01:17:24.496Z,16.00
2018-05-16T01:19:28.956Z,16.10
2018-05-16T01:21:35.317Z,16.20
2018-05-16T01:23:39.341Z,16.20
2018-05-16T01:25:44.193Z,16.20
2018-05-16T01:27:48.433Z,16.10
2018-05-16T01:29:52.455Z,16.10
2018-05-16T01:31:56.301Z,16.10
2018-05-16T01:34:01.186Z,16.10
2018-05-16T01:36:05.111Z,16.10
2018-05-16T01:38:09.001Z,16.20
2018-05-16T01:40:13.288Z,16.20
2018-05-16T01:42:17.897Z,16.10
2018-05-16T01:44:21.793Z,16.10
2018-05-16T01:46:25.662Z,16.00
2018-05-16T01:48:34.130Z,15.70
2018-05-16T01:50:38.005Z,15.70
2018-05-16T01:52:44.214Z,15.60
2018-05-16T01:54:48.204Z,15.50
2018-05-16T01:56:52.146Z,15.50
2018-05-16T01:58:58.274Z,15.40
2018-05-16T02:01:02.173Z,15.30
2018-05-16T02:03:06.824Z,15.30
2018-05-16T02:05:10.986Z,15.20
2018-05-16T02:07:14.908Z,15.30
2018-05-16T02:09:18.870Z,15.30
2018-05-16T02:11:22.785Z,15.30
2018-05-16T02:13:27.415Z,15.40
2018-05-16T02:15:32.128Z,15.40
2018-05-16T02:17:38.537Z,15.30
2018-05-16T02:19:42.458Z,15.30
2018-05-16T02:21:47.377Z,15.30
2018-05-16T02:23:52.007Z,15.30
2018-05-16T02:25:55.898Z,15.20
2018-05-16T02:28:00.538Z,15.30
2018-05-16T02:30:06.605Z,15.20
2018-05-16T02:32:10.479Z,15.20
2018-05-16T02:34:14.318Z,15.20
2018-05-16T02:36:18.198Z,15.20
2018-05-16T02:38:22.141Z,15.20
2018-05-16T02:40:28.485Z,15.30
2018-05-16T02:42:32.915Z,15.30
2018-05-16T02:44:36.931Z,15.40
2018-05-16T02:46:44.648Z,15.50
2018-05-16T02:48:50.061Z,15.40
2018-05-16T02:50:54.037Z,15.40
2018-05-16T02:52:57.970Z,15.40
2018-05-16T02:55:03.220Z,15.40
2018-05-16T02:57:09.308Z,15.40
2018-05-16T02:59:13.221Z,15.40
2018-05-16T03:01:17.170Z,15.40
2018-05-16T03:03:21.102Z,15.50
2018-05-16T03:05:25.810Z,15.50
2018-05-16T03:07:30.739Z,15.40
2018-05-16T03:09:36.447Z,15.40
2018-05-16T03:11:40.411Z,15.50
2018-05-16T03:13:45.326Z,15.00
2018-05-16T03:15:49.394Z,15.00
2018-05-16T03:18:00.190Z,15.10
2018-05-16T03:20:12.571Z,15.10
2018-05-16T03:22:19.041Z,15.10
2018-05-16T03:24:23.259Z,15.30
2018-05-16T03:26:27.338Z,15.50
2018-05-16T03:28:31.393Z,15.60
2018-05-16T03:30:35.277Z,15.70
2018-05-16T03:32:42.011Z,15.80
2018-05-16T03:34:45.902Z,15.90
2018-05-16T03:36:50.578Z,15.90
2018-05-16T03:38:56.887Z,15.90
2018-05-16T03:41:01.594Z,15.90
2018-05-16T03:43:05.485Z,15.90
2018-05-16T03:45:09.906Z,15.70
2018-05-16T03:47:13.938Z,15.70
2018-05-16T03:49:18.728Z,15.50
2018-05-16T03:51:22.637Z,15.50
2018-05-16T03:53:27.009Z,15.40
2018-05-16T03:55:32.181Z,15.40
2018-05-16T03:57:44.877Z,15.50
2018-05-16T04:02:05.385Z,15.30
2018-05-16T04:04:17.538Z,15.30
2018-05-16T04:06:21.386Z,15.20
2018-05-16T04:08:25.262Z,15.00
2018-05-16T04:10:31.264Z,15.00
2018-05-16T04:12:35.912Z,15.00
2018-05-16T04:14:39.813Z,15.00
2018-05-16T04:16:44.095Z,15.00
2018-05-16T04:18:47.960Z,15.00
2018-05-16T04:20:52.725Z,15.00
2018-05-16T04:22:57.090Z,15.00
2018-05-16T04:25:01.971Z,15.00
2018-05-16T04:27:05.932Z,14.90
2018-05-16T04:29:11.308Z,14.90
2018-05-16T04:31:16.293Z,14.90
2018-05-16T04:33:21.015Z,15.00
2018-05-16T04:35:26.290Z,15.00
2018-05-16T04:37:30.150Z,15.00
2018-05-16T04:39:34.040Z,15.00
2018-05-16T04:41:38.192Z,15.00
2018-05-16T04:43:42.978Z,14.80
2018-05-16T04:45:48.052Z,14.80
2018-05-16T04:47:52.802Z,14.90
2018-05-16T04:49:58.129Z,14.90
2018-05-16T04:52:04.362Z,14.80
2018-05-16T04:54:09.758Z,14.80
2018-05-16T04:56:13.958Z,14.80
2018-05-16T04:58:18.614Z,14.80
2018-05-16T05:00:23.477Z,14.80
2018-05-16T05:02:35.212Z,14.80
2018-05-16T05:04:39.090Z,14.80
2018-05-16T05:06:42.927Z,14.80
2018-05-16T05:08:46.830Z,14.80
2018-05-16T05:10:51.655Z,14.90
2018-05-16T05:12:56.016Z,14.90
2018-05-16T05:15:01.025Z,14.90
2018-05-16T05:17:05.574Z,14.90
2018-05-16T05:19:10.634Z,15.00
2018-05-16T05:21:14.586Z,15.00
2018-05-16T05:23:18.522Z,15.00
2018-05-16T05:25:22.730Z,14.80
2018-05-16T05:27:26.700Z,14.80
2018-05-16T05:29:30.670Z,14.80
2018-05-16T05:31:34.852Z,14.80
2018-05-16T05:33:38.760Z,14.90
2018-05-16T05:35:49.051Z,14.80
2018-05-16T05:37:56.060Z,14.90
2018-05-16T05:40:00.023Z,14.90
2018-05-16T05:42:05.601Z,15.00
2018-05-16T05:44:16.495Z,15.00
2018-05-16T05:46:20.539Z,15.10
2018-05-16T05:48:26.410Z,15.10
2018-05-16T05:50:31.131Z,15.20
2018-05-16T05:52:35.679Z,15.20
2018-05-16T05:54:39.643Z,15.20
2018-05-16T05:56:44.654Z,15.30
2018-05-16T05:58:48.503Z,15.40
2018-05-16T06:00:52.541Z,15.40
2018-05-16T06:02:57.850Z,15.50
2018-05-16T06:05:07.239Z,15.50
2018-05-16T06:07:12.235Z,15.60
2018-05-16T06:09:17.983Z,15.80
2018-05-16T06:11:21.895Z,15.80
2018-05-16T06:13:26.344Z,15.90
2018-05-16T06:15:31.875Z,15.90
2018-05-16T06:17:36.588Z,16.00
2018-05-16T06:19:40.720Z,16.00
2018-05-16T06:21:45.789Z,16.10
2018-05-16T06:23:49.990Z,16.40
2018-05-16T06:25:53.917Z,16.40
2018-05-16T06:27:58.854Z,16.50
2018-05-16T06:30:05.265Z,16.60
2018-05-16T06:32:09.573Z,16.80
2018-05-16T06:34:14.665Z,16.70
2018-05-16T06:36:18.549Z,16.60
2018-05-16T06:38:23.273Z,16.60
2018-05-16T06:40:32.863Z,16.50
2018-05-16T06:42:36.814Z,16.70
2018-05-16T06:44:41.349Z,16.70
2018-05-16T06:46:49.733Z,16.70
2018-05-16T06:48:53.859Z,16.80
2018-05-16T06:50:58.511Z,17.00
2018-05-16T06:53:02.544Z,17.20
2018-05-16T06:55:06.445Z,17.30
2018-05-16T06:57:10.375Z,17.40
2018-05-16T06:59:15.142Z,17.70
2018-05-16T07:01:19.191Z,17.70
2018-05-16T07:03:23.767Z,17.60
2018-05-16T07:05:32.215Z,17.70
2018-05-16T07:07:36.174Z,17.90
2018-05-16T07:09:41.046Z,18.50
2018-05-16T07:11:45.438Z,18.50
2018-05-16T07:13:49.330Z,18.70
2018-05-16T07:15:53.282Z,18.60
2018-05-16T07:17:57.222Z,18.60
2018-05-16T07:20:02.213Z,18.10
2018-05-16T07:22:06.213Z,18.10
2018-05-16T07:24:13.045Z,18.00
2018-05-16T07:26:17.844Z,17.50
2018-05-16T07:28:21.903Z,17.60
2018-05-16T07:30:27.302Z,17.70
2018-05-16T07:32:31.362Z,17.90
2018-05-16T07:34:35.517Z,18.20
2018-05-16T07:36:43.682Z,18.50
2018-05-16T07:38:47.537Z,18.70
2018-05-16T07:40:52.248Z,18.80
2018-05-16T07:42:56.428Z,18.80
2018-05-16T07:45:00.301Z,18.80
2018-05-16T07:47:05.417Z,19.10
2018-05-16T07:49:09.771Z,19.20
2018-05-16T07:51:14.376Z,19.30
2018-05-16T07:53:19.770Z,19.40
2018-05-16T07:55:24.113Z,19.60
2018-05-16T07:57:29.876Z,19.40
2018-05-16T07:59:34.286Z,19.50
2018-05-16T08:01:39.621Z,18.90
2018-05-16T08:03:44.623Z,18.50
2018-05-16T08:05:48.866Z,18.50
2018-05-16T08:07:54.498Z,18.20
2018-05-16T08:09:59.222Z,18.10
2018-05-16T08:12:03.145Z,18.10
2018-05-16T08:14:10.865Z,18.60
2018-05-16T08:16:15.541Z,18.50
2018-05-16T08:18:20.078Z,18.90
2018-05-16T08:20:24.313Z,19.00
2018-05-16T08:22:28.225Z,18.90
2018-05-16T08:24:32.468Z,19.00
2018-05-16T08:26:39.091Z,18.90
2018-05-16T08:28:43.138Z,18.80
2018-05-16T08:30:47.106Z,18.90
2018-05-16T08:32:51.054Z,19.00
2018-05-16T08:34:55.775Z,19.00
2018-05-16T08:36:59.745Z,18.90
2018-05-16T08:39:06.861Z,19.10
2018-05-16T08:41:10.796Z,19.10
2018-05-16T08:43:16.318Z,19.50
2018-05-16T08:45:23.053Z,19.70
2018-05-16T08:47:27.708Z,19.80
2018-05-16T08:49:31.669Z,19.80
2018-05-16T08:51:43.214Z,20.30
2018-05-16T08:53:47.162Z,20.40
2018-05-16T08:56:07.936Z,20.80
2018-05-16T08:58:17.958Z,20.60
2018-05-16T09:00:30.074Z,20.60
2018-05-16T09:02:33.902Z,20.70
2018-05-16T09:04:39.137Z,20.90
2018-05-16T09:06:43.100Z,21.20
2018-05-16T09:08:48.398Z,21.00
2018-05-16T09:10:53.326Z,20.90
2018-05-16T09:12:58.054Z,21.00
2018-05-16T09:15:04.059Z,20.80
2018-05-16T09:17:08.389Z,20.80
2018-05-16T09:19:12.554Z,20.90
2018-05-16T09:21:16.731Z,21.00
2018-05-16T09:23:21.382Z,20.90
2018-05-16T09:25:26.590Z,20.90
2018-05-16T09:27:30.606Z,20.80
2018-05-16T09:29:35.829Z,21.00
2018-05-16T09:31:40.141Z,20.90
2018-05-16T09:33:44.228Z,20.90
2018-05-16T09:35:48.731Z,21.00
2018-05-16T09:37:52.658Z,21.00
2018-05-16T09:39:59.666Z,21.00
2018-05-16T09:42:05.106Z,21.20
2018-05-16T09:44:10.290Z,21.20
2018-05-16T09:46:14.229Z,21.20
2018-05-16T09:48:18.154Z,21.20
2018-05-16T09:50:22.197Z,21.00
2018-05-16T09:52:26.856Z,20.90
2018-05-16T09:54:31.910Z,21.00
2018-05-16T09:56:35.861Z,21.30
2018-05-16T09:58:39.809Z,21.60
2018-05-16T10:00:44.106Z,21.80
2018-05-16T10:02:48.076Z,22.00
2018-05-16T10:04:53.023Z,21.90
2018-05-16T10:06:57.389Z,22.00
2018-05-16T10:09:01.323Z,21.80
2018-05-16T10:11:05.359Z,21.80
2018-05-16T10:13:10.329Z,21.90
2018-05-16T10:15:17.677Z,22.00
2018-05-16T10:17:21.777Z,22.40
2018-05-16T10:19:26.144Z,22.70
2018-05-16T10:21:31.014Z,22.90
2018-05-16T10:23:34.972Z,22.80
2018-05-16T10:25:39.374Z,22.80
2018-05-16T10:27:43.354Z,22.90
2018-05-16T10:29:53.608Z,22.80
2018-05-16T10:31:58.442Z,22.80
2018-05-16T10:34:03.591Z,22.80
2018-05-16T10:36:07.546Z,23.20
2018-05-16T10:38:13.597Z,23.20
2018-05-16T10:40:18.551Z,23.40
2018-05-16T10:42:22.641Z,23.40
2018-05-16T10:44:28.188Z,23.70
2018-05-16T10:46:33.540Z,23.70
2018-05-16T10:48:37.483Z,23.90
2018-05-16T10:50:41.968Z,24.30
2018-05-16T10:52:45.972Z,24.40
2018-05-16T10:54:51.349Z,24.60
2018-05-16T10:56:56.419Z,24.80
2018-05-16T10:59:02.035Z,24.60
2018-05-16T11:01:07.634Z,24.50
2018-05-16T11:03:13.837Z,24.20
2018-05-16T11:05:17.766Z,23.70
2018-05-16T11:07:21.687Z,23.20
2018-05-16T11:09:25.907Z,23.20
2018-05-16T11:11:31.329Z,23.60
2018-05-16T11:13:35.290Z,23.60
2018-05-16T11:15:41.550Z,23.90
2018-05-16T11:17:45.564Z,24.20
2018-05-16T11:19:49.513Z,24.30
2018-05-16T11:21:53.826Z,24.50
2018-05-16T11:23:58.531Z,24.70
2018-05-16T11:26:02.715Z,24.60
2018-05-16T11:28:07.313Z,24.70
2018-05-16T11:30:14.231Z,24.50
2018-05-16T11:32:18.307Z,24.40
2018-05-16T11:34:22.191Z,24.00
2018-05-16T11:36:27.522Z,23.70
2018-05-16T11:38:33.296Z,23.70
2018-05-16T11:40:37.744Z,23.60
2018-05-16T11:43:10.342Z,23.80
2018-05-16T11:45:15.597Z,23.90
2018-05-16T11:47:19.985Z,24.10
2018-05-16T11:49:24.025Z,24.30
2018-05-16T11:51:28.054Z,24.60
2018-05-16T11:53:34.970Z,25.30
2018-05-16T11:55:40.559Z,25.30
2018-05-16T11:57:45.142Z,25.60
2018-05-16T11:59:52.480Z,25.60
2018-05-16T12:01:57.253Z,25.80
2018-05-16T12:04:01.316Z,25.80
2018-05-16T12:06:06.270Z,26.00
2018-05-16T12:08:10.206Z,26.00
2018-05-16T12:10:14.113Z,26.10
2018-05-16T12:12:18.311Z,25.90
2018-05-16T12:14:22.474Z,25.90
2018-05-16T12:16:27.235Z,26.20
2018-05-16T12:18:31.391Z,26.20
2018-05-16T12:20:35.931Z,26.10
2018-05-16T12:22:39.970Z,25.60
2018-05-16T12:24:43.838Z,24.90
2018-05-16T12:26:48.251Z,24.00
2018-05-16T12:28:52.336Z,22.60
2018-05-16T12:30:57.606Z,22.30
2018-05-16T12:33:01.493Z,22.40
2018-05-16T12:35:05.425Z,22.70
2018-05-16T12:37:10.691Z,22.70
2018-05-16T12:39:14.926Z,22.70
2018-05-16T12:41:22.641Z,22.90
2018-05-16T12:43:30.903Z,23.20
2018-05-16T12:45:35.422Z,23.30
2018-05-16T12:47:39.427Z,23.80
2018-05-16T12:49:45.638Z,24.30
2018-05-16T12:51:49.765Z,25.00
2018-05-16T12:53:54.302Z,25.30
2018-05-16T12:56:00.074Z,25.80
2018-05-16T12:58:06.147Z,25.80
2018-05-16T13:00:10.406Z,25.80
2018-05-16T13:02:14.899Z,25.90
2018-05-16T13:04:18.940Z,26.00
2018-05-16T13:06:23.825Z,26.00
2018-05-16T13:08:28.196Z,26.00
2018-05-16T13:10:32.262Z,26.00
2018-05-16T13:12:36.325Z,25.80
2018-05-16T13:14:40.418Z,25.80
2018-05-16T13:16:44.390Z,26.20
2018-05-16T13:18:48.278Z,26.80
2018-05-16T13:20:52.642Z,27.50
2018-05-16T13:22:57.716Z,27.90
2018-05-16T13:25:01.599Z,28.20
2018-05-16T13:27:06.576Z,28.80
2018-05-16T13:29:10.499Z,28.80
2018-05-16T13:31:14.832Z,28.50
2018-05-16T13:33:19.061Z,28.40
2018-05-16T13:35:24.382Z,27.60
2018-05-16T13:37:28.343Z,27.60
2018-05-16T13:39:32.537Z,26.90
2018-05-16T13:41:36.543Z,26.60
2018-05-16T13:43:41.580Z,26.30
2018-05-16T13:45:46.245Z,26.10
2018-05-16T13:47:50.316Z,26.10
2018-05-16T13:49:54.242Z,26.40
2018-05-16T13:52:00.303Z,26.70
2018-05-16T13:54:04.217Z,26.60
2018-05-16T13:56:08.168Z,26.60
2018-05-16T13:58:15.780Z,26.80
2018-05-16T14:00:19.983Z,26.80
2018-05-16T14:02:23.974Z,26.70
2018-05-16T14:04:28.003Z,26.40
2018-05-16T14:06:32.094Z,25.50
2018-05-16T14:08:36.285Z,24.90
2018-05-16T14:10:41.575Z,24.10
2018-05-16T14:12:48.190Z,24.00
2018-05-16T14:14:53.906Z,23.50
2018-05-16T14:17:00.353Z,23.00
2018-05-16T14:19:06.299Z,22.50
2018-05-16T14:21:14.406Z,22.00
2018-05-16T14:23:41.606Z,21.60
2018-05-16T14:25:46.025Z,21.40
2018-05-16T14:27:52.005Z,20.80
2018-05-16T14:30:03.988Z,20.70
2018-05-16T14:32:09.633Z,20.10
2018-05-16T14:34:13.547Z,20.10
2018-05-16T14:36:23.035Z,19.90
2018-05-16T14:38:27.093Z,19.70
2018-05-16T14:40:31.102Z,19.50
2018-05-16T14:42:36.163Z,19.30
2018-05-16T14:44:39.997Z,19.30
2018-05-16T14:46:43.974Z,19.30
2018-05-16T14:48:50.221Z,19.50
2018-05-16T14:50:54.310Z,19.50
2018-05-16T14:52:58.281Z,19.70
2018-05-16T14:55:02.807Z,19.70
2018-05-16T14:57:07.408Z,19.70
2018-05-16T14:59:11.637Z,19.50
2018-05-16T15:01:15.874Z,19.40
2018-05-16T15:03:20.274Z,19.50
2018-05-16T15:05:24.190Z,19.60
2018-05-16T15:07:36.670Z,19.70
2018-05-16T15:09:40.589Z,19.80
2018-05-16T15:11:44.709Z,19.90
2018-05-16T15:13:49.787Z,20.90
2018-05-16T15:15:55.157Z,20.80
2018-05-16T15:17:59.300Z,21.80
2018-05-16T15:20:04.230Z,22.70
2018-05-16T15:22:08.265Z,23.20
2018-05-16T15:24:12.937Z,24.20
2018-05-16T15:26:16.835Z,24.20
2018-05-16T15:28:20.993Z,24.50
2018-05-16T15:30:24.912Z,24.50
2018-05-16T15:32:30.526Z,24.40
2018-05-16T15:34:34.875Z,24.40
2018-05-16T15:36:42.479Z,24.20
2018-05-16T15:38:46.462Z,24.10
2018-05-16T15:40:50.379Z,24.10
2018-05-16T15:42:56.065Z,24.70
2018-05-16T15:44:59.910Z,24.60
2018-05-16T15:47:04.124Z,25.00
2018-05-16T15:49:08.510Z,25.20
2018-05-16T15:51:12.769Z,25.20
2018-05-16T15:53:17.755Z,25.20
2018-05-16T15:55:23.188Z,25.40
2018-05-16T15:57:27.214Z,25.30
2018-05-16T15:59:31.124Z,25.10
2018-05-16T16:01:35.446Z,25.30
2018-05-16T16:03:40.241Z,25.60
2018-05-16T16:05:44.239Z,25.70
2018-05-16T16:07:48.429Z,25.80
2018-05-16T16:09:53.076Z,25.80
2018-05-16T16:11:57.895Z,25.80
2018-05-16T16:14:02.141Z,25.90
2018-05-16T16:16:05.963Z,26.00
2018-05-16T16:18:09.862Z,26.30
2018-05-16T16:20:13.709Z,26.60
2018-05-16T16:22:18.465Z,26.90
2018-05-16T16:24:22.309Z,26.90
2018-05-16T16:26:26.281Z,26.80
2018-05-16T16:28:34.599Z,26.70
2018-05-16T16:30:39.889Z,26.70
2018-05-16T16:32:45.283Z,26.00
2018-05-16T16:34:49.794Z,26.00
2018-05-16T16:36:53.689Z,25.90
2018-05-16T16:38:57.737Z,25.80
2018-05-16T16:41:01.610Z,25.70
2018-05-16T16:43:05.641Z,25.90
2018-05-16T16:45:11.694Z,26.00
2018-05-16T16:47:16.981Z,25.70
2018-05-16T16:49:20.874Z,25.60
2018-05-16T16:51:25.532Z,25.90
2018-05-16T16:53:29.709Z,25.80
2018-05-16T16:55:34.383Z,25.90
2018-05-16T16:57:38.294Z,25.90
2018-05-16T16:59:42.549Z,25.30
2018-05-16T17:01:47.177Z,24.40
2018-05-16T17:03:54.941Z,24.40
2018-05-16T17:05:58.804Z,24.50
2018-05-16T17:08:03.562Z,24.50
2018-05-16T17:10:07.835Z,24.40
2018-05-16T17:12:12.491Z,24.50
2018-05-16T17:14:16.474Z,24.60
2018-05-16T17:16:20.385Z,24.70
2018-05-16T17:18:24.787Z,24.20
2018-05-16T17:20:28.718Z,23.90
2018-05-16T17:22:32.702Z,23.90
2018-05-16T17:24:36.929Z,24.00
2018-05-16T17:26:40.822Z,23.90
2018-05-16T17:28:45.143Z,23.70
2018-05-16T17:30:49.782Z,23.20
2018-05-16T17:32:54.418Z,22.60
2018-05-16T17:34:58.330Z,22.50
2018-05-16T17:37:02.385Z,22.20
2018-05-16T17:39:07.590Z,21.60
2018-05-16T17:41:12.404Z,21.50
2018-05-16T17:43:16.641Z,21.60
2018-05-16T17:45:21.274Z,21.40
2018-05-16T17:47:26.105Z,21.20
2018-05-16T17:49:30.287Z,21.20
2018-05-16T17:51:34.142Z,21.10
2018-05-16T17:53:39.228Z,21.10
2018-05-16T17:55:43.281Z,21.10
2018-05-16T17:57:47.215Z,21.10
2018-05-16T17:59:51.157Z,21.00
2018-05-16T18:01:55.067Z,21.10
2018-05-16T18:03:59.886Z,20.80
2018-05-16T18:06:03.858Z,20.80
2018-05-16T18:08:09.275Z,20.80
2018-05-16T18:10:14.058Z,20.70
2018-05-16T18:12:18.129Z,20.70
2018-05-16T18:15:30.966Z,20.40
2018-05-16T18:17:34.890Z,20.40
2018-05-16T18:19:40.046Z,20.30
2018-05-16T18:21:44.766Z,20.10
2018-05-16T18:23:49.369Z,19.90
2018-05-16T18:25:53.222Z,19.90
2018-05-16T18:27:57.276Z,19.80
2018-05-16T18:32:13.800Z,19.80
2018-05-16T18:34:17.723Z,19.70
2018-05-16T18:36:22.409Z,19.90
2018-05-16T18:38:26.565Z,19.90
2018-05-16T18:40:31.417Z,20.40
2018-05-16T18:42:36.150Z,20.50
2018-05-16T18:44:40.398Z,20.50
2018-05-16T18:46:44.258Z,20.40
2018-05-16T18:48:48.313Z,20.40
2018-05-16T18:50:52.543Z,20.50
2018-05-16T18:52:56.670Z,20.50
2018-05-16T18:55:01.303Z,20.30
2018-05-16T18:57:05.642Z,20.30
2018-05-16T18:59:09.577Z,20.40
2018-05-16T19:01:14.428Z,20.40
2018-05-16T19:03:20.158Z,20.40
2018-05-16T19:05:24.251Z,20.50
2018-05-16T19:07:28.453Z,20.50
2018-05-16T19:09:32.694Z,20.40
2018-05-16T19:11:36.650Z,20.30
2018-05-16T19:13:47.041Z,20.30
2018-05-16T19:15:54.118Z,20.30
2018-05-16T19:17:58.049Z,20.30
2018-05-16T19:20:01.946Z,20.40
2018-05-16T19:22:08.257Z,20.40
2018-05-16T19:24:12.912Z,20.20
2018-05-16T19:26:16.825Z,20.20
2018-05-16T19:28:25.385Z,20.20
2018-05-16T19:30:30.069Z,20.10
2018-05-16T19:32:33.905Z,20.10
2018-05-16T19:34:39.486Z,20.10
2018-05-16T19:36:43.358Z,20.00
2018-05-16T19:38:47.234Z,20.00
2018-05-16T19:40:51.513Z,20.00
2018-05-16T19:42:55.603Z,20.00
2018-05-16T19:45:00.361Z,19.90
2018-05-16T19:47:05.030Z,19.80
2018-05-16T19:49:09.046Z,19.70
2018-05-16T19:51:13.354Z,19.70
2018-05-16T19:53:17.589Z,19.60
2018-05-16T19:55:22.347Z,19.50
2018-05-16T19:57:26.249Z,19.40
2018-05-16T19:59:30.470Z,19.30
2018-05-16T20:01:34.318Z,19.30
2018-05-16T20:03:38.273Z,19.30
2018-05-16T20:05:43.347Z,19.30
2018-05-16T20:07:47.255Z,19.30
2018-05-16T20:09:52.056Z,19.20
2018-05-16T20:11:56.100Z,19.10
2018-05-16T20:14:00.003Z,19.00
2018-05-16T20:16:04.655Z,19.00
2018-05-16T20:18:09.857Z,19.00
2018-05-16T20:20:13.968Z,19.10
2018-05-16T20:22:19.314Z,19.10
2018-05-16T20:24:24.310Z,19.10
2018-05-16T20:26:28.303Z,19.10
2018-05-16T20:28:32.256Z,19.10
2018-05-16T20:30:37.558Z,19.00
2018-05-16T20:32:41.475Z,19.00
2018-05-16T20:34:45.402Z,19.00
2018-05-16T20:36:49.417Z,19.00
2018-05-16T20:38:54.300Z,18.80
2018-05-16T20:40:58.330Z,18.80
2018-05-16T20:43:02.596Z,18.80
2018-05-16T20:45:07.738Z,18.80
2018-05-16T20:47:11.697Z,18.90
2018-05-16T20:49:17.705Z,18.90
2018-05-16T20:51:28.942Z,19.00
2018-05-16T20:53:32.908Z,19.10
2018-05-16T20:55:39.172Z,19.20
2018-05-16T20:57:43.142Z,19.40
2018-05-16T20:59:47.109Z,19.40
2018-05-16T21:01:51.070Z,19.30
2018-05-16T21:03:55.901Z,19.20
2018-05-16T21:05:59.838Z,19.20
2018-05-16T21:08:04.955Z,19.20
2018-05-16T21:10:08.910Z,19.30
2018-05-16T21:12:13.731Z,19.20
2018-05-16T21:14:21.002Z,19.20
2018-05-16T21:16:24.907Z,19.10
2018-05-16T21:18:28.897Z,18.90
2018-05-16T21:20:33.035Z,18.70
2018-05-16T21:22:36.926Z,18.70
2018-05-16T21:24:40.766Z,18.60
2018-05-16T21:26:45.363Z,18.60
2018-05-16T21:28:49.266Z,18.60
2018-05-16T21:30:53.378Z,18.70
2018-05-16T21:32:57.602Z,18.60
2018-05-16T21:35:02.310Z,18.60
2018-05-16T21:37:06.321Z,18.60
2018-05-16T21:39:10.582Z,18.70
2018-05-16T21:41:15.961Z,18.70
2018-05-16T21:43:19.794Z,18.80
2018-05-16T21:45:25.746Z,18.60
2018-05-16T21:47:30.362Z,18.70
2018-05-16T21:49:34.403Z,18.70
2018-05-16T21:51:38.568Z,18.90
2018-05-16T21:53:42.430Z,18.90
2018-05-16T21:55:46.299Z,18.90
2018-05-16T21:57:50.126Z,18.80
2018-05-16T21:59:54.068Z,18.60
2018-05-16T22:01:59.434Z,18.10
2018-05-16T22:04:03.816Z,18.10
2018-05-16T22:06:07.765Z,17.80
2018-05-16T22:08:12.484Z,17.50
2018-05-16T22:10:17.806Z,17.40
2018-05-16T22:12:22.520Z,17.00
2018-05-16T22:14:26.475Z,16.90
2018-05-16T22:16:32.815Z,16.90
2018-05-16T22:18:36.716Z,16.90
2018-05-16T22:20:40.590Z,17.00
2018-05-16T22:22:44.450Z,17.10
2018-05-16T22:24:49.107Z,17.10
2018-05-16T22:26:53.855Z,17.30
2018-05-16T22:28:58.022Z,17.30
2018-05-16T22:31:07.842Z,17.40
2018-05-16T22:33:17.637Z,17.40
2018-05-16T22:35:26.905Z,17.50
2018-05-16T22:37:35.991Z,17.50
2018-05-16T22:39:45.192Z,17.50
2018-05-16T22:41:55.272Z,17.40
2018-05-16T22:43:59.245Z,17.40
2018-05-16T22:46:05.127Z,17.80
2018-05-16T22:48:09.392Z,17.80
2018-05-16T22:50:13.382Z,17.90
2018-05-16T22:52:18.573Z,18.10
2018-05-16T22:54:23.385Z,18.10
2018-05-16T22:56:28.057Z,18.00
2018-05-16T22:58:32.045Z,18.00
2018-05-16T23:00:36.209Z,18.00
2018-05-16T23:02:40.926Z,17.90
2018-05-16T23:04:44.810Z,17.90
2018-05-16T23:06:51.099Z,17.90
2018-05-16T23:08:55.049Z,18.00
2018-05-16T23:10:58.984Z,18.00
2018-05-16T23:13:02.948Z,18.00
2018-05-16T23:15:07.802Z,18.10
2018-05-16T23:17:11.631Z,18.10
2018-05-16T23:19:17.989Z,18.10
2018-05-16T23:21:22.537Z,18.10
2018-05-16T23:23:26.323Z,18.20
2018-05-16T23:25:30.515Z,18.10
2018-05-16T23:27:34.444Z,18.00
2018-05-16T23:29:38.285Z,18.00
2018-05-16T23:31:44.134Z,18.20
2018-05-16T23:33:48.056Z,18.10
2018-05-16T23:35:53.158Z,18.30
2018-05-16T23:37:58.043Z,18.40
2018-05-16T23:40:02.495Z,18.40
2018-05-16T23:42:06.425Z,18.40
2018-05-16T23:44:12.482Z,18.50
2018-05-16T23:46:17.167Z,18.50
2018-05-16T23:48:21.411Z,18.50
2018-05-16T23:50:27.390Z,18.50
2018-05-16T23:52:31.529Z,18.50
2018-05-16T23:54:35.378Z,18.60
2018-05-16T23:56:41.539Z,18.60
2018-05-16T23:58:46.221Z,18.60
